sensor_id;sensor_type;location;lat;lon;timestamp;P1;durP1;ratioP1;P2;durP2;ratioP2
8622;SDS011;4349;47.552;8.904;2023-07-08T00:01:36;6.27;;;4.37;;
8622;SDS011;4349;47.552;8.904;2023-07-08T00:04:04;5.23;;;4.73;;
8622;SDS011;4349;47.552;8.904;2023-07-08T00:06:34;5.57;;;4.23;;
8622;SDS011;4349;47.552;8.904;2023-07-08T00:09:04;7.77;;;4.77;;
8622;SDS011;4349;47.552;8.904;2023-07-08T00:11:34;6.83;;;4.63;;
8622;SDS011;4349;47.552;8.904;2023-07-08T00:14:01;7.70;;;4.50;;
8622;SDS011;4349;47.552;8.904;2023-07-08T00:16:29;6.17;;;4.77;;
8622;SDS011;4349;47.552;8.904;2023-07-08T00:18:58;5.13;;;4.33;;
8622;SDS011;4349;47.552;8.904;2023-07-08T00:21:25;6.17;;;4.57;;
8622;SDS011;4349;47.552;8.904;2023-07-08T00:23:53;7.00;;;4.77;;
8622;SDS011;4349;47.552;8.904;2023-07-08T00:26:22;6.93;;;4.63;;
8622;SDS011;4349;47.552;8.904;2023-07-08T00:28:50;4.90;;;4.40;;
8622;SDS011;4349;47.552;8.904;2023-07-08T00:31:19;6.20;;;4.60;;
8622;SDS011;4349;47.552;8.904;2023-07-08T00:33:50;5.73;;;4.20;;
8622;SDS011;4349;47.552;8.904;2023-07-08T00:36:19;6.83;;;4.60;;
8622;SDS011;4349;47.552;8.904;2023-07-08T00:38:46;6.93;;;4.27;;
8622;SDS011;4349;47.552;8.904;2023-07-08T00:41:16;5.87;;;4.87;;
8622;SDS011;4349;47.552;8.904;2023-07-08T00:43:48;10.07;;;5.13;;
8622;SDS011;4349;47.552;8.904;2023-07-08T00:46:25;8.38;;;5.38;;
8622;SDS011;4349;47.552;8.904;2023-07-08T00:48:58;10.23;;;5.33;;
8622;SDS011;4349;47.552;8.904;2023-07-08T00:51:28;8.20;;;5.23;;
8622;SDS011;4349;47.552;8.904;2023-07-08T00:53:56;8.80;;;5.43;;
8622;SDS011;4349;47.552;8.904;2023-07-08T00:56:23;6.93;;;5.30;;
8622;SDS011;4349;47.552;8.904;2023-07-08T00:58:53;6.03;;;5.43;;
8622;SDS011;4349;47.552;8.904;2023-07-08T01:01:24;8.73;;;5.90;;
8622;SDS011;4349;47.552;8.904;2023-07-08T01:03:53;8.27;;;5.67;;
8622;SDS011;4349;47.552;8.904;2023-07-08T01:06:23;9.70;;;5.47;;
8622;SDS011;4349;47.552;8.904;2023-07-08T01:08:59;9.57;;;5.50;;
8622;SDS011;4349;47.552;8.904;2023-07-08T01:11:29;8.87;;;5.73;;
8622;SDS011;4349;47.552;8.904;2023-07-08T01:13:56;10.67;;;5.83;;
8622;SDS011;4349;47.552;8.904;2023-07-08T01:16:26;7.20;;;5.73;;
8622;SDS011;4349;47.552;8.904;2023-07-08T01:18:53;6.53;;;5.63;;
8622;SDS011;4349;47.552;8.904;2023-07-08T01:21:27;7.93;;;5.10;;
8622;SDS011;4349;47.552;8.904;2023-07-08T01:23:57;9.93;;;5.53;;
8622;SDS011;4349;47.552;8.904;2023-07-08T01:26:24;5.93;;;5.30;;
8622;SDS011;4349;47.552;8.904;2023-07-08T01:28:53;5.93;;;5.43;;
8622;SDS011;4349;47.552;8.904;2023-07-08T01:31:20;10.03;;;5.73;;
8622;SDS011;4349;47.552;8.904;2023-07-08T01:33:48;7.97;;;5.37;;
8622;SDS011;4349;47.552;8.904;2023-07-08T01:36:17;6.10;;;5.47;;
8622;SDS011;4349;47.552;8.904;2023-07-08T01:38:46;6.60;;;5.30;;
8622;SDS011;4349;47.552;8.904;2023-07-08T01:41:15;6.93;;;5.10;;
8622;SDS011;4349;47.552;8.904;2023-07-08T01:43:43;8.73;;;5.73;;
8622;SDS011;4349;47.552;8.904;2023-07-08T01:46:11;9.73;;;5.50;;
8622;SDS011;4349;47.552;8.904;2023-07-08T01:48:41;6.23;;;5.57;;
8622;SDS011;4349;47.552;8.904;2023-07-08T01:51:11;7.30;;;5.50;;
8622;SDS011;4349;47.552;8.904;2023-07-08T01:53:40;6.83;;;5.43;;
8622;SDS011;4349;47.552;8.904;2023-07-08T01:56:08;6.47;;;5.63;;
8622;SDS011;4349;47.552;8.904;2023-07-08T01:58:37;8.57;;;5.13;;
8622;SDS011;4349;47.552;8.904;2023-07-08T02:01:05;7.77;;;5.40;;
8622;SDS011;4349;47.552;8.904;2023-07-08T02:03:33;5.43;;;4.93;;
8622;SDS011;4349;47.552;8.904;2023-07-08T02:06:00;6.63;;;4.90;;
8622;SDS011;4349;47.552;8.904;2023-07-08T02:08:28;7.77;;;5.17;;
8622;SDS011;4349;47.552;8.904;2023-07-08T02:10:57;7.67;;;5.23;;
8622;SDS011;4349;47.552;8.904;2023-07-08T02:13:25;5.60;;;5.00;;
8622;SDS011;4349;47.552;8.904;2023-07-08T02:15:54;7.27;;;5.67;;
8622;SDS011;4349;47.552;8.904;2023-07-08T02:18:22;7.67;;;5.07;;
8622;SDS011;4349;47.552;8.904;2023-07-08T02:20:51;5.43;;;4.90;;
8622;SDS011;4349;47.552;8.904;2023-07-08T02:23:18;6.20;;;4.77;;
8622;SDS011;4349;47.552;8.904;2023-07-08T02:25:50;8.97;;;5.17;;
8622;SDS011;4349;47.552;8.904;2023-07-08T02:28:17;7.80;;;5.00;;
8622;SDS011;4349;47.552;8.904;2023-07-08T02:30:45;4.87;;;4.30;;
8622;SDS011;4349;47.552;8.904;2023-07-08T02:33:14;6.40;;;5.10;;
8622;SDS011;4349;47.552;8.904;2023-07-08T02:35:44;7.63;;;5.37;;
8622;SDS011;4349;47.552;8.904;2023-07-08T02:38:12;6.13;;;5.10;;
8622;SDS011;4349;47.552;8.904;2023-07-08T02:40:39;5.70;;;5.10;;
8622;SDS011;4349;47.552;8.904;2023-07-08T02:43:07;5.83;;;5.20;;
8622;SDS011;4349;47.552;8.904;2023-07-08T02:45:35;8.30;;;5.23;;
8622;SDS011;4349;47.552;8.904;2023-07-08T02:48:03;6.67;;;5.07;;
8622;SDS011;4349;47.552;8.904;2023-07-08T02:50:32;5.47;;;4.93;;
8622;SDS011;4349;47.552;8.904;2023-07-08T02:53:00;7.57;;;5.03;;
8622;SDS011;4349;47.552;8.904;2023-07-08T02:55:27;8.50;;;5.40;;
8622;SDS011;4349;47.552;8.904;2023-07-08T02:57:55;9.33;;;5.00;;
8622;SDS011;4349;47.552;8.904;2023-07-08T03:00:22;9.03;;;6.03;;
8622;SDS011;4349;47.552;8.904;2023-07-08T03:02:51;6.30;;;5.63;;
8622;SDS011;4349;47.552;8.904;2023-07-08T03:05:18;7.03;;;5.33;;
8622;SDS011;4349;47.552;8.904;2023-07-08T03:07:47;6.87;;;5.60;;
8622;SDS011;4349;47.552;8.904;2023-07-08T03:10:15;8.80;;;5.67;;
8622;SDS011;4349;47.552;8.904;2023-07-08T03:12:42;7.97;;;6.00;;
8622;SDS011;4349;47.552;8.904;2023-07-08T03:15:10;10.30;;;6.47;;
8622;SDS011;4349;47.552;8.904;2023-07-08T03:17:38;26.20;;;7.63;;
8622;SDS011;4349;47.552;8.904;2023-07-08T03:20:07;5.73;;;5.13;;
8622;SDS011;4349;47.552;8.904;2023-07-08T03:22:36;9.87;;;6.03;;
8622;SDS011;4349;47.552;8.904;2023-07-08T03:25:06;9.10;;;5.70;;
8622;SDS011;4349;47.552;8.904;2023-07-08T03:27:36;7.07;;;4.97;;
8622;SDS011;4349;47.552;8.904;2023-07-08T03:30:04;7.43;;;5.10;;
8622;SDS011;4349;47.552;8.904;2023-07-08T03:32:33;5.83;;;5.03;;
8622;SDS011;4349;47.552;8.904;2023-07-08T03:35:01;7.63;;;5.27;;
8622;SDS011;4349;47.552;8.904;2023-07-08T03:37:29;9.60;;;5.13;;
8622;SDS011;4349;47.552;8.904;2023-07-08T03:39:57;5.43;;;4.90;;
8622;SDS011;4349;47.552;8.904;2023-07-08T03:42:25;6.47;;;5.80;;
8622;SDS011;4349;47.552;8.904;2023-07-08T03:44:54;5.33;;;4.80;;
8622;SDS011;4349;47.552;8.904;2023-07-08T03:47:23;5.47;;;4.80;;
8622;SDS011;4349;47.552;8.904;2023-07-08T03:49:51;5.33;;;4.60;;
8622;SDS011;4349;47.552;8.904;2023-07-08T03:52:20;4.23;;;3.87;;
8622;SDS011;4349;47.552;8.904;2023-07-08T03:54:47;8.50;;;4.53;;
8622;SDS011;4349;47.552;8.904;2023-07-08T03:57:15;6.07;;;4.33;;
8622;SDS011;4349;47.552;8.904;2023-07-08T03:59:46;4.10;;;3.80;;
8622;SDS011;4349;47.552;8.904;2023-07-08T04:02:13;5.97;;;4.33;;
8622;SDS011;4349;47.552;8.904;2023-07-08T04:04:40;6.07;;;5.07;;
8622;SDS011;4349;47.552;8.904;2023-07-08T04:07:08;6.03;;;4.10;;
8622;SDS011;4349;47.552;8.904;2023-07-08T04:09:38;6.77;;;4.47;;
8622;SDS011;4349;47.552;8.904;2023-07-08T04:12:07;5.17;;;4.57;;
8622;SDS011;4349;47.552;8.904;2023-07-08T04:14:35;3.67;;;3.43;;
8622;SDS011;4349;47.552;8.904;2023-07-08T04:17:04;4.33;;;3.20;;
8622;SDS011;4349;47.552;8.904;2023-07-08T04:19:31;5.50;;;3.33;;
8622;SDS011;4349;47.552;8.904;2023-07-08T04:22:00;4.10;;;3.27;;
8622;SDS011;4349;47.552;8.904;2023-07-08T04:24:28;3.57;;;3.30;;
8622;SDS011;4349;47.552;8.904;2023-07-08T04:26:55;3.60;;;3.10;;
8622;SDS011;4349;47.552;8.904;2023-07-08T04:29:23;3.30;;;3.00;;
8622;SDS011;4349;47.552;8.904;2023-07-08T04:31:51;3.30;;;3.00;;
8622;SDS011;4349;47.552;8.904;2023-07-08T04:34:19;3.37;;;3.07;;
8622;SDS011;4349;47.552;8.904;2023-07-08T04:36:47;5.43;;;3.00;;
8622;SDS011;4349;47.552;8.904;2023-07-08T04:39:14;3.67;;;2.70;;
8622;SDS011;4349;47.552;8.904;2023-07-08T04:41:42;6.30;;;3.93;;
8622;SDS011;4349;47.552;8.904;2023-07-08T04:44:10;4.43;;;2.70;;
8622;SDS011;4349;47.552;8.904;2023-07-08T04:46:39;3.23;;;2.90;;
8622;SDS011;4349;47.552;8.904;2023-07-08T04:49:08;2.90;;;2.70;;
8622;SDS011;4349;47.552;8.904;2023-07-08T04:51:38;3.20;;;3.00;;
8622;SDS011;4349;47.552;8.904;2023-07-08T04:54:05;5.20;;;2.90;;
8622;SDS011;4349;47.552;8.904;2023-07-08T04:56:34;3.30;;;2.70;;
8622;SDS011;4349;47.552;8.904;2023-07-08T04:59:03;2.90;;;2.60;;
8622;SDS011;4349;47.552;8.904;2023-07-08T05:01:31;2.63;;;2.43;;
8622;SDS011;4349;47.552;8.904;2023-07-08T05:03:59;2.93;;;2.60;;
8622;SDS011;4349;47.552;8.904;2023-07-08T05:06:26;2.83;;;2.67;;
8622;SDS011;4349;47.552;8.904;2023-07-08T05:08:55;2.67;;;2.30;;
8622;SDS011;4349;47.552;8.904;2023-07-08T05:11:23;2.53;;;2.33;;
8622;SDS011;4349;47.552;8.904;2023-07-08T05:13:50;3.00;;;2.70;;
8622;SDS011;4349;47.552;8.904;2023-07-08T05:16:18;2.50;;;2.40;;
8622;SDS011;4349;47.552;8.904;2023-07-08T05:18:45;3.17;;;2.43;;
8622;SDS011;4349;47.552;8.904;2023-07-08T05:21:13;2.43;;;2.33;;
8622;SDS011;4349;47.552;8.904;2023-07-08T05:23:40;3.67;;;2.30;;
8622;SDS011;4349;47.552;8.904;2023-07-08T05:26:11;4.03;;;2.70;;
8622;SDS011;4349;47.552;8.904;2023-07-08T05:28:39;2.87;;;2.60;;
8622;SDS011;4349;47.552;8.904;2023-07-08T05:31:06;2.83;;;2.63;;
8622;SDS011;4349;47.552;8.904;2023-07-08T05:33:34;2.20;;;2.10;;
8622;SDS011;4349;47.552;8.904;2023-07-08T05:36:01;2.20;;;2.07;;
8622;SDS011;4349;47.552;8.904;2023-07-08T05:38:29;3.70;;;2.50;;
8622;SDS011;4349;47.552;8.904;2023-07-08T05:40:57;2.33;;;2.20;;
8622;SDS011;4349;47.552;8.904;2023-07-08T05:43:27;2.70;;;2.50;;
8622;SDS011;4349;47.552;8.904;2023-07-08T05:45:58;2.60;;;2.40;;
8622;SDS011;4349;47.552;8.904;2023-07-08T05:48:37;2.00;;;1.90;;
8622;SDS011;4349;47.552;8.904;2023-07-08T05:51:05;3.57;;;1.87;;
8622;SDS011;4349;47.552;8.904;2023-07-08T05:53:33;2.33;;;2.23;;
8622;SDS011;4349;47.552;8.904;2023-07-08T05:56:01;4.23;;;2.60;;
8622;SDS011;4349;47.552;8.904;2023-07-08T05:58:30;2.00;;;1.90;;
8622;SDS011;4349;47.552;8.904;2023-07-08T06:00:57;3.53;;;2.10;;
8622;SDS011;4349;47.552;8.904;2023-07-08T06:03:26;4.53;;;2.23;;
8622;SDS011;4349;47.552;8.904;2023-07-08T06:05:53;1.83;;;1.73;;
8622;SDS011;4349;47.552;8.904;2023-07-08T06:08:21;2.00;;;1.90;;
8622;SDS011;4349;47.552;8.904;2023-07-08T06:10:49;1.90;;;1.80;;
8622;SDS011;4349;47.552;8.904;2023-07-08T06:13:16;2.20;;;2.00;;
8622;SDS011;4349;47.552;8.904;2023-07-08T06:15:45;1.70;;;1.60;;
8622;SDS011;4349;47.552;8.904;2023-07-08T06:18:12;1.80;;;1.70;;
8622;SDS011;4349;47.552;8.904;2023-07-08T06:20:40;2.23;;;1.87;;
8622;SDS011;4349;47.552;8.904;2023-07-08T06:23:07;2.10;;;1.83;;
8622;SDS011;4349;47.552;8.904;2023-07-08T06:25:35;2.10;;;2.00;;
8622;SDS011;4349;47.552;8.904;2023-07-08T06:28:02;1.80;;;1.70;;
8622;SDS011;4349;47.552;8.904;2023-07-08T06:30:30;2.57;;;1.80;;
8622;SDS011;4349;47.552;8.904;2023-07-08T06:32:59;1.97;;;1.87;;
8622;SDS011;4349;47.552;8.904;2023-07-08T06:35:27;2.20;;;2.10;;
8622;SDS011;4349;47.552;8.904;2023-07-08T06:37:54;2.67;;;1.93;;
8622;SDS011;4349;47.552;8.904;2023-07-08T06:40:22;1.60;;;1.53;;
8622;SDS011;4349;47.552;8.904;2023-07-08T06:42:49;2.20;;;2.10;;
8622;SDS011;4349;47.552;8.904;2023-07-08T06:45:43;2.00;;;1.90;;
8622;SDS011;4349;47.552;8.904;2023-07-08T06:48:12;2.23;;;2.13;;
8622;SDS011;4349;47.552;8.904;2023-07-08T06:50:41;3.67;;;1.97;;
8622;SDS011;4349;47.552;8.904;2023-07-08T06:53:08;1.97;;;1.70;;
8622;SDS011;4349;47.552;8.904;2023-07-08T06:55:36;2.20;;;2.10;;
8622;SDS011;4349;47.552;8.904;2023-07-08T06:58:03;2.00;;;1.90;;
8622;SDS011;4349;47.552;8.904;2023-07-08T07:00:31;2.83;;;2.03;;
8622;SDS011;4349;47.552;8.904;2023-07-08T07:02:58;1.80;;;1.70;;
8622;SDS011;4349;47.552;8.904;2023-07-08T07:05:27;2.20;;;2.10;;
8622;SDS011;4349;47.552;8.904;2023-07-08T07:07:55;2.07;;;1.83;;
8622;SDS011;4349;47.552;8.904;2023-07-08T07:10:23;1.87;;;1.73;;
8622;SDS011;4349;47.552;8.904;2023-07-08T07:12:50;2.50;;;1.70;;
8622;SDS011;4349;47.552;8.904;2023-07-08T07:15:18;2.00;;;1.80;;
8622;SDS011;4349;47.552;8.904;2023-07-08T07:17:45;1.70;;;1.60;;
8622;SDS011;4349;47.552;8.904;2023-07-08T07:20:13;2.07;;;1.80;;
8622;SDS011;4349;47.552;8.904;2023-07-08T07:22:41;2.00;;;1.90;;
8622;SDS011;4349;47.552;8.904;2023-07-08T07:25:09;1.80;;;1.70;;
8622;SDS011;4349;47.552;8.904;2023-07-08T07:27:37;2.00;;;1.90;;
8622;SDS011;4349;47.552;8.904;2023-07-08T07:30:04;2.30;;;2.20;;
8622;SDS011;4349;47.552;8.904;2023-07-08T07:32:32;1.93;;;1.80;;
8622;SDS011;4349;47.552;8.904;2023-07-08T07:35:01;1.83;;;1.73;;
8622;SDS011;4349;47.552;8.904;2023-07-08T07:37:28;2.13;;;1.90;;
8622;SDS011;4349;47.552;8.904;2023-07-08T07:39:57;1.87;;;1.77;;
8622;SDS011;4349;47.552;8.904;2023-07-08T07:42:26;2.00;;;1.70;;
8622;SDS011;4349;47.552;8.904;2023-07-08T07:44:54;1.70;;;1.60;;
8622;SDS011;4349;47.552;8.904;2023-07-08T07:47:21;1.50;;;1.50;;
8622;SDS011;4349;47.552;8.904;2023-07-08T07:49:49;1.70;;;1.60;;
8622;SDS011;4349;47.552;8.904;2023-07-08T07:52:16;2.00;;;1.90;;
8622;SDS011;4349;47.552;8.904;2023-07-08T07:54:50;1.90;;;1.80;;
8622;SDS011;4349;47.552;8.904;2023-07-08T07:57:18;2.60;;;1.83;;
8622;SDS011;4349;47.552;8.904;2023-07-08T07:59:46;1.60;;;1.60;;
8622;SDS011;4349;47.552;8.904;2023-07-08T08:02:14;2.00;;;1.90;;
8622;SDS011;4349;47.552;8.904;2023-07-08T08:04:42;2.20;;;1.77;;
8622;SDS011;4349;47.552;8.904;2023-07-08T08:07:10;1.60;;;1.50;;
8622;SDS011;4349;47.552;8.904;2023-07-08T08:09:37;1.93;;;1.73;;
8622;SDS011;4349;47.552;8.904;2023-07-08T08:12:06;1.80;;;1.80;;
8622;SDS011;4349;47.552;8.904;2023-07-08T08:14:35;1.83;;;1.73;;
8622;SDS011;4349;47.552;8.904;2023-07-08T08:17:03;2.20;;;2.07;;
8622;SDS011;4349;47.552;8.904;2023-07-08T08:19:31;2.30;;;2.10;;
8622;SDS011;4349;47.552;8.904;2023-07-08T08:21:59;2.20;;;2.10;;
8622;SDS011;4349;47.552;8.904;2023-07-08T08:24:27;1.90;;;1.80;;
8622;SDS011;4349;47.552;8.904;2023-07-08T08:26:54;2.50;;;2.40;;
8622;SDS011;4349;47.552;8.904;2023-07-08T08:29:22;2.37;;;2.17;;
8622;SDS011;4349;47.552;8.904;2023-07-08T08:31:50;2.43;;;2.27;;
8622;SDS011;4349;47.552;8.904;2023-07-08T08:34:18;2.70;;;2.50;;
8622;SDS011;4349;47.552;8.904;2023-07-08T08:36:45;2.55;;;2.45;;
8622;SDS011;4349;47.552;8.904;2023-07-08T08:39:13;3.00;;;2.33;;
8622;SDS011;4349;47.552;8.904;2023-07-08T08:41:41;2.20;;;2.03;;
8622;SDS011;4349;47.552;8.904;2023-07-08T08:44:10;2.42;;;2.22;;
8622;SDS011;4349;47.552;8.904;2023-07-08T08:46:41;1.92;;;1.83;;
8622;SDS011;4349;47.552;8.904;2023-07-08T08:49:16;2.13;;;2.00;;
8622;SDS011;4349;47.552;8.904;2023-07-08T08:51:45;2.30;;;2.20;;
8622;SDS011;4349;47.552;8.904;2023-07-08T08:54:13;2.78;;;2.22;;
8622;SDS011;4349;47.552;8.904;2023-07-08T08:56:43;2.00;;;1.90;;
8622;SDS011;4349;47.552;8.904;2023-07-08T08:59:14;2.28;;;1.98;;
8622;SDS011;4349;47.552;8.904;2023-07-08T09:01:43;4.60;;;2.00;;
8622;SDS011;4349;47.552;8.904;2023-07-08T09:04:12;2.42;;;2.22;;
8622;SDS011;4349;47.552;8.904;2023-07-08T09:06:43;2.58;;;2.20;;
8622;SDS011;4349;47.552;8.904;2023-07-08T09:09:12;2.03;;;1.92;;
8622;SDS011;4349;47.552;8.904;2023-07-08T09:11:44;2.22;;;2.10;;
8622;SDS011;4349;47.552;8.904;2023-07-08T09:14:15;1.98;;;1.88;;
8622;SDS011;4349;47.552;8.904;2023-07-08T09:16:44;2.90;;;2.70;;
8622;SDS011;4349;47.552;8.904;2023-07-08T09:19:14;2.92;;;2.20;;
8622;SDS011;4349;47.552;8.904;2023-07-08T09:21:45;2.13;;;2.03;;
8622;SDS011;4349;47.552;8.904;2023-07-08T09:24:15;2.42;;;2.22;;
8622;SDS011;4349;47.552;8.904;2023-07-08T09:26:44;3.35;;;2.10;;
8622;SDS011;4349;47.552;8.904;2023-07-08T09:29:12;2.10;;;1.90;;
8622;SDS011;4349;47.552;8.904;2023-07-08T09:31:40;2.20;;;2.00;;
8622;SDS011;4349;47.552;8.904;2023-07-08T09:34:10;2.40;;;2.20;;
8622;SDS011;4349;47.552;8.904;2023-07-08T09:36:39;3.45;;;2.30;;
8622;SDS011;4349;47.552;8.904;2023-07-08T09:39:11;2.08;;;1.90;;
8622;SDS011;4349;47.552;8.904;2023-07-08T09:41:39;3.63;;;2.05;;
8622;SDS011;4349;47.552;8.904;2023-07-08T09:44:13;2.50;;;2.40;;
8622;SDS011;4349;47.552;8.904;2023-07-08T09:46:42;2.35;;;2.15;;
8622;SDS011;4349;47.552;8.904;2023-07-08T09:49:15;2.50;;;2.40;;
8622;SDS011;4349;47.552;8.904;2023-07-08T09:51:44;2.85;;;2.60;;
8622;SDS011;4349;47.552;8.904;2023-07-08T09:54:12;2.85;;;2.40;;
8622;SDS011;4349;47.552;8.904;2023-07-08T09:56:41;2.72;;;2.53;;
8622;SDS011;4349;47.552;8.904;2023-07-08T09:59:11;2.10;;;2.00;;
8622;SDS011;4349;47.552;8.904;2023-07-08T10:01:38;3.80;;;2.35;;
8622;SDS011;4349;47.552;8.904;2023-07-08T10:04:07;2.90;;;2.30;;
8622;SDS011;4349;47.552;8.904;2023-07-08T10:06:35;2.25;;;2.08;;
8622;SDS011;4349;47.552;8.904;2023-07-08T10:09:04;2.58;;;2.38;;
8622;SDS011;4349;47.552;8.904;2023-07-08T10:11:33;2.33;;;2.13;;
8622;SDS011;4349;47.552;8.904;2023-07-08T10:14:03;2.45;;;2.25;;
8622;SDS011;4349;47.552;8.904;2023-07-08T10:16:40;2.58;;;2.42;;
8622;SDS011;4349;47.552;8.904;2023-07-08T10:19:09;2.58;;;2.38;;
8622;SDS011;4349;47.552;8.904;2023-07-08T10:21:40;3.25;;;2.70;;
8622;SDS011;4349;47.552;8.904;2023-07-08T10:24:16;2.20;;;2.10;;
8622;SDS011;4349;47.552;8.904;2023-07-08T10:26:49;2.80;;;2.60;;
8622;SDS011;4349;47.552;8.904;2023-07-08T10:29:21;2.55;;;2.35;;
8622;SDS011;4349;47.552;8.904;2023-07-08T10:31:51;2.40;;;2.30;;
8622;SDS011;4349;47.552;8.904;2023-07-08T10:34:30;3.00;;;2.78;;
8622;SDS011;4349;47.552;8.904;2023-07-08T10:37:03;2.95;;;2.75;;
8622;SDS011;4349;47.552;8.904;2023-07-08T10:42:19;2.72;;;2.53;;
8622;SDS011;4349;47.552;8.904;2023-07-08T10:44:57;3.50;;;2.20;;
8622;SDS011;4349;47.552;8.904;2023-07-08T10:47:30;2.55;;;2.45;;
8622;SDS011;4349;47.552;8.904;2023-07-08T10:50:06;2.70;;;2.60;;
8622;SDS011;4349;47.552;8.904;2023-07-08T10:52:42;2.80;;;2.60;;
8622;SDS011;4349;47.552;8.904;2023-07-08T10:55:18;4.70;;;2.70;;
8622;SDS011;4349;47.552;8.904;2023-07-08T10:57:53;2.83;;;2.63;;
8622;SDS011;4349;47.552;8.904;2023-07-08T11:00:27;2.90;;;2.70;;
8622;SDS011;4349;47.552;8.904;2023-07-08T11:05:50;2.50;;;2.30;;
8622;SDS011;4349;47.552;8.904;2023-07-08T11:08:20;2.42;;;2.22;;
8622;SDS011;4349;47.552;8.904;2023-07-08T11:10:49;2.75;;;2.55;;
8622;SDS011;4349;47.552;8.904;2023-07-08T11:13:42;2.60;;;2.40;;
8622;SDS011;4349;47.552;8.904;2023-07-08T11:16:12;2.97;;;2.65;;
8622;SDS011;4349;47.552;8.904;2023-07-08T11:18:43;3.00;;;2.80;;
8622;SDS011;4349;47.552;8.904;2023-07-08T11:21:16;2.80;;;2.60;;
8622;SDS011;4349;47.552;8.904;2023-07-08T11:23:47;3.58;;;2.50;;
8622;SDS011;4349;47.552;8.904;2023-07-08T11:26:18;2.40;;;2.20;;
8622;SDS011;4349;47.552;8.904;2023-07-08T11:28:48;2.67;;;2.55;;
8622;SDS011;4349;47.552;8.904;2023-07-08T11:31:17;2.80;;;2.70;;
8622;SDS011;4349;47.552;8.904;2023-07-08T11:33:45;5.20;;;2.47;;
8622;SDS011;4349;47.552;8.904;2023-07-08T11:36:13;2.70;;;2.50;;
8622;SDS011;4349;47.552;8.904;2023-07-08T11:38:47;2.75;;;2.65;;
8622;SDS011;4349;47.552;8.904;2023-07-08T11:41:15;3.28;;;2.60;;
8622;SDS011;4349;47.552;8.904;2023-07-08T11:43:45;3.05;;;2.67;;
8622;SDS011;4349;47.552;8.904;2023-07-08T11:46:15;2.47;;;2.38;;
8622;SDS011;4349;47.552;8.904;2023-07-08T11:48:45;2.42;;;2.33;;
8622;SDS011;4349;47.552;8.904;2023-07-08T11:51:17;2.85;;;2.65;;
8622;SDS011;4349;47.552;8.904;2023-07-08T11:53:49;2.63;;;2.47;;
8622;SDS011;4349;47.552;8.904;2023-07-08T11:56:21;3.53;;;2.60;;
8622;SDS011;4349;47.552;8.904;2023-07-08T11:58:59;2.70;;;2.50;;
8622;SDS011;4349;47.552;8.904;2023-07-08T12:01:34;2.60;;;2.50;;
8622;SDS011;4349;47.552;8.904;2023-07-08T12:04:16;3.00;;;2.80;;
8622;SDS011;4349;47.552;8.904;2023-07-08T12:06:46;3.05;;;2.80;;
8622;SDS011;4349;47.552;8.904;2023-07-08T12:09:16;3.33;;;3.00;;
8622;SDS011;4349;47.552;8.904;2023-07-08T12:11:48;2.90;;;2.63;;
8622;SDS011;4349;47.552;8.904;2023-07-08T12:14:19;2.92;;;2.72;;
8622;SDS011;4349;47.552;8.904;2023-07-08T12:16:48;2.88;;;2.78;;
8622;SDS011;4349;47.552;8.904;2023-07-08T12:19:17;3.13;;;2.92;;
8622;SDS011;4349;47.552;8.904;2023-07-08T12:21:45;2.80;;;2.60;;
8622;SDS011;4349;47.552;8.904;2023-07-08T12:24:13;2.63;;;2.45;;
8622;SDS011;4349;47.552;8.904;2023-07-08T12:26:41;2.85;;;2.70;;
8622;SDS011;4349;47.552;8.904;2023-07-08T12:29:10;4.00;;;3.15;;
8622;SDS011;4349;47.552;8.904;2023-07-08T12:31:38;3.97;;;3.00;;
8622;SDS011;4349;47.552;8.904;2023-07-08T12:34:09;3.03;;;2.83;;
8622;SDS011;4349;47.552;8.904;2023-07-08T12:36:39;2.95;;;2.58;;
8622;SDS011;4349;47.552;8.904;2023-07-08T12:39:07;4.68;;;3.10;;
8622;SDS011;4349;47.552;8.904;2023-07-08T12:41:36;3.10;;;2.83;;
8622;SDS011;4349;47.552;8.904;2023-07-08T12:44:07;3.15;;;2.78;;
8622;SDS011;4349;47.552;8.904;2023-07-08T12:46:35;3.03;;;2.83;;
8622;SDS011;4349;47.552;8.904;2023-07-08T12:49:03;3.00;;;2.80;;
8622;SDS011;4349;47.552;8.904;2023-07-08T12:51:31;3.15;;;2.90;;
8622;SDS011;4349;47.552;8.904;2023-07-08T12:53:59;2.67;;;2.58;;
8622;SDS011;4349;47.552;8.904;2023-07-08T12:56:26;2.60;;;2.47;;
8622;SDS011;4349;47.552;8.904;2023-07-08T12:58:54;2.50;;;2.40;;
8622;SDS011;4349;47.552;8.904;2023-07-08T13:01:24;2.83;;;2.63;;
8622;SDS011;4349;47.552;8.904;2023-07-08T13:03:53;2.53;;;2.42;;
8622;SDS011;4349;47.552;8.904;2023-07-08T13:06:24;2.78;;;2.50;;
8622;SDS011;4349;47.552;8.904;2023-07-08T13:08:53;3.20;;;3.00;;
8622;SDS011;4349;47.552;8.904;2023-07-08T13:11:26;2.63;;;2.50;;
8622;SDS011;4349;47.552;8.904;2023-07-08T13:13:54;2.50;;;2.40;;
8622;SDS011;4349;47.552;8.904;2023-07-08T13:16:23;2.58;;;2.47;;
8622;SDS011;4349;47.552;8.904;2023-07-08T13:18:53;2.83;;;2.63;;
8622;SDS011;4349;47.552;8.904;2023-07-08T13:21:21;4.07;;;2.80;;
8622;SDS011;4349;47.552;8.904;2023-07-08T13:23:50;2.58;;;2.47;;
8622;SDS011;4349;47.552;8.904;2023-07-08T13:26:20;3.50;;;2.90;;
8622;SDS011;4349;47.552;8.904;2023-07-08T13:28:48;3.08;;;2.75;;
8622;SDS011;4349;47.552;8.904;2023-07-08T13:31:17;2.97;;;2.88;;
8622;SDS011;4349;47.552;8.904;2023-07-08T13:33:50;3.25;;;3.03;;
8622;SDS011;4349;47.552;8.904;2023-07-08T13:36:18;3.38;;;3.03;;
8622;SDS011;4349;47.552;8.904;2023-07-08T13:38:46;5.07;;;2.55;;
8622;SDS011;4349;47.552;8.904;2023-07-08T13:41:17;3.03;;;2.78;;
8622;SDS011;4349;47.552;8.904;2023-07-08T13:43:48;4.88;;;3.00;;
8622;SDS011;4349;47.552;8.904;2023-07-08T13:46:27;4.40;;;3.10;;
8622;SDS011;4349;47.552;8.904;2023-07-08T13:48:55;3.13;;;2.88;;
8622;SDS011;4349;47.552;8.904;2023-07-08T13:51:23;2.63;;;2.53;;
8622;SDS011;4349;47.552;8.904;2023-07-08T13:53:51;2.97;;;2.78;;
8622;SDS011;4349;47.552;8.904;2023-07-08T13:56:20;3.47;;;2.80;;
8622;SDS011;4349;47.552;8.904;2023-07-08T13:58:49;3.00;;;2.70;;
8622;SDS011;4349;47.552;8.904;2023-07-08T14:01:18;3.10;;;2.88;;
8622;SDS011;4349;47.552;8.904;2023-07-08T14:03:48;4.22;;;2.92;;
8622;SDS011;4349;47.552;8.904;2023-07-08T14:06:16;2.70;;;2.50;;
8622;SDS011;4349;47.552;8.904;2023-07-08T14:08:44;3.10;;;2.80;;
8622;SDS011;4349;47.552;8.904;2023-07-08T14:11:12;3.00;;;2.75;;
8622;SDS011;4349;47.552;8.904;2023-07-08T14:13:39;2.92;;;2.70;;
8622;SDS011;4349;47.552;8.904;2023-07-08T14:16:10;3.22;;;3.03;;
8622;SDS011;4349;47.552;8.904;2023-07-08T14:18:41;2.97;;;2.60;;
8622;SDS011;4349;47.552;8.904;2023-07-08T14:21:09;2.83;;;2.58;;
8622;SDS011;4349;47.552;8.904;2023-07-08T14:23:36;3.10;;;2.80;;
8622;SDS011;4349;47.552;8.904;2023-07-08T14:26:06;2.53;;;2.33;;
8622;SDS011;4349;47.552;8.904;2023-07-08T14:28:34;2.78;;;2.58;;
8622;SDS011;4349;47.552;8.904;2023-07-08T14:31:02;2.70;;;2.50;;
8622;SDS011;4349;47.552;8.904;2023-07-08T14:33:31;2.35;;;2.25;;
8622;SDS011;4349;47.552;8.904;2023-07-08T14:35:59;2.60;;;2.35;;
8622;SDS011;4349;47.552;8.904;2023-07-08T14:38:26;2.67;;;2.47;;
8622;SDS011;4349;47.552;8.904;2023-07-08T14:40:54;3.42;;;2.50;;
8622;SDS011;4349;47.552;8.904;2023-07-08T14:43:24;2.63;;;2.53;;
8622;SDS011;4349;47.552;8.904;2023-07-08T14:45:53;2.50;;;2.40;;
8622;SDS011;4349;47.552;8.904;2023-07-08T14:48:21;2.50;;;2.30;;
8622;SDS011;4349;47.552;8.904;2023-07-08T14:50:53;2.13;;;2.03;;
8622;SDS011;4349;47.552;8.904;2023-07-08T14:53:21;2.78;;;2.55;;
8622;SDS011;4349;47.552;8.904;2023-07-08T14:55:49;2.47;;;2.30;;
8622;SDS011;4349;47.552;8.904;2023-07-08T14:58:17;2.50;;;2.40;;
8622;SDS011;4349;47.552;8.904;2023-07-08T15:00:48;3.35;;;2.35;;
8622;SDS011;4349;47.552;8.904;2023-07-08T15:03:16;2.70;;;2.45;;
8622;SDS011;4349;47.552;8.904;2023-07-08T15:05:44;2.45;;;2.25;;
8622;SDS011;4349;47.552;8.904;2023-07-08T15:08:12;2.90;;;2.17;;
8622;SDS011;4349;47.552;8.904;2023-07-08T15:10:41;2.45;;;2.22;;
8622;SDS011;4349;47.552;8.904;2023-07-08T15:13:10;2.20;;;2.10;;
8622;SDS011;4349;47.552;8.904;2023-07-08T15:15:38;2.63;;;2.42;;
8622;SDS011;4349;47.552;8.904;2023-07-08T15:18:10;2.38;;;2.28;;
8622;SDS011;4349;47.552;8.904;2023-07-08T15:20:38;2.85;;;2.50;;
8622;SDS011;4349;47.552;8.904;2023-07-08T15:23:06;2.47;;;2.38;;
8622;SDS011;4349;47.552;8.904;2023-07-08T15:25:35;2.88;;;2.40;;
8622;SDS011;4349;47.552;8.904;2023-07-08T15:28:04;2.22;;;2.05;;
8622;SDS011;4349;47.552;8.904;2023-07-08T15:30:31;2.30;;;2.20;;
8622;SDS011;4349;47.552;8.904;2023-07-08T15:32:59;2.47;;;2.20;;